createdAt,value
2023-09-10T00:01:08.685Z,101483.50
2023-09-10T00:03:35.777Z,101474.00
2023-09-10T00:06:06.140Z,101483.69
2023-09-10T00:08:34.029Z,101479.38
2023-09-10T00:11:01.160Z,101472.56
2023-09-10T00:13:28.852Z,101485.00
2023-09-10T00:15:56.917Z,101478.94
2023-09-10T00:18:24.312Z,101472.88
2023-09-10T00:20:54.377Z,101467.66
2023-09-10T00:23:21.669Z,101469.53
2023-09-10T00:25:49.043Z,101468.78
2023-09-10T00:28:16.126Z,101461.75
2023-09-10T00:30:43.051Z,101469.78
2023-09-10T00:33:10.020Z,101468.09
2023-09-10T00:35:37.010Z,101476.09
2023-09-10T00:38:04.226Z,101474.41
2023-09-10T00:40:31.825Z,101460.44
2023-09-10T00:42:58.826Z,101463.00
2023-09-10T00:45:25.864Z,101470.09
2023-09-10T00:47:52.927Z,101468.41
2023-09-10T00:50:20.116Z,101471.09
2023-09-10T00:52:50.980Z,101470.28
2023-09-10T00:55:19.700Z,101471.22
2023-09-10T00:57:46.827Z,101470.44
2023-09-10T01:00:15.070Z,101466.06
2023-09-10T01:02:46.040Z,101462.63
2023-09-10T01:05:13.482Z,101467.00
2023-09-10T01:07:40.647Z,101462.72
2023-09-10T01:10:08.606Z,101468.94
2023-09-10T01:13:23.258Z,101463.75
2023-09-10T01:16:07.947Z,101466.50
2023-09-10T01:18:44.604Z,101466.63
2023-09-10T01:21:51.206Z,101472.00
2023-09-10T01:24:48.858Z,101459.81
2023-09-10T01:27:16.271Z,101465.97
2023-09-10T01:29:44.825Z,101465.09
2023-09-10T01:32:37.056Z,101459.91
2023-09-10T01:35:21.296Z,101467.91
2023-09-10T01:38:11.177Z,101467.97
2023-09-10T01:40:58.244Z,101464.50
2023-09-10T01:43:25.736Z,101463.72
2023-09-10T01:45:52.772Z,101452.38
2023-09-10T01:48:19.745Z,101469.94
2023-09-10T01:50:46.796Z,101469.13
2023-09-10T01:53:17.783Z,101470.00
2023-09-10T01:55:45.242Z,101460.38
2023-09-10T01:58:14.335Z,101461.28
2023-09-10T02:00:41.838Z,101465.72
2023-09-10T02:03:08.981Z,101456.13
2023-09-10T02:05:36.015Z,101454.44
2023-09-10T02:08:03.408Z,101463.31
2023-09-10T02:10:33.019Z,101456.28
2023-09-10T02:13:00.145Z,101466.91
2023-09-10T02:15:27.760Z,101452.81
2023-09-10T02:17:55.192Z,101452.06
2023-09-10T02:20:22.193Z,101447.66
2023-09-10T02:22:49.263Z,101461.72
2023-09-10T02:25:16.279Z,101454.75
2023-09-10T02:27:43.633Z,101458.28
2023-09-10T02:30:10.768Z,101467.13
2023-09-10T02:32:38.905Z,101460.16
2023-09-10T02:35:06.612Z,101454.94
2023-09-10T02:37:34.007Z,101458.44
2023-09-10T02:40:00.987Z,101459.34
2023-09-10T02:42:28.625Z,101453.25
2023-09-10T02:44:55.554Z,101455.00
2023-09-10T02:47:22.584Z,101462.94
2023-09-10T02:49:49.797Z,101461.22
2023-09-10T02:52:16.805Z,101461.25
2023-09-10T02:54:43.753Z,101461.28
2023-09-10T02:57:10.730Z,101459.56
2023-09-10T02:59:37.682Z,101458.75
2023-09-10T03:02:04.676Z,101463.13
2023-09-10T03:04:31.618Z,101457.03
2023-09-10T03:06:58.578Z,101444.81
2023-09-10T03:09:25.545Z,101460.63
2023-09-10T03:11:52.473Z,101461.50
2023-09-10T03:14:19.622Z,101463.31
2023-09-10T03:16:46.657Z,101459.88
2023-09-10T03:19:13.865Z,101469.53
2023-09-10T03:21:41.102Z,101454.59
2023-09-10T03:24:08.629Z,101465.22
2023-09-10T03:26:35.558Z,101462.53
2023-09-10T03:29:02.555Z,101459.09
2023-09-10T03:31:30.594Z,101454.72
2023-09-10T03:33:57.710Z,101445.06
2023-09-10T03:36:24.694Z,101446.84
2023-09-10T03:38:51.713Z,101451.25
2023-09-10T03:41:18.668Z,101443.34
2023-09-10T03:43:45.726Z,101457.44
2023-09-10T03:46:12.914Z,101457.50
2023-09-10T03:48:40.111Z,101447.84
2023-09-10T03:51:07.331Z,101443.47
2023-09-10T03:53:34.381Z,101433.00
2023-09-10T03:56:01.421Z,101434.78
2023-09-10T03:58:28.760Z,101435.69
2023-09-10T04:00:55.861Z,101445.38
2023-09-10T04:03:23.119Z,101445.38
2023-09-10T04:05:50.192Z,101455.94
2023-09-10T04:08:17.204Z,101450.69
2023-09-10T04:10:44.191Z,101447.22
2023-09-10T04:13:12.203Z,101454.22
2023-09-10T04:15:39.140Z,101452.50
2023-09-10T04:18:06.884Z,101453.44
2023-09-10T04:20:34.035Z,101451.72
2023-09-10T04:23:01.115Z,101449.06
2023-09-10T04:25:28.141Z,101448.22
2023-09-10T04:27:55.167Z,101439.50
2023-09-10T04:30:22.491Z,101443.03
2023-09-10T04:32:49.522Z,101443.06
2023-09-10T04:35:16.679Z,101444.78
2023-09-10T04:37:43.865Z,101443.06
2023-09-10T04:40:11.609Z,101443.97
2023-09-10T04:42:38.551Z,101451.00
2023-09-10T04:45:06.093Z,101451.03
2023-09-10T04:47:33.315Z,101451.06
2023-09-10T04:50:00.574Z,101458.06
2023-09-10T04:52:27.901Z,101451.06
2023-09-10T04:54:54.930Z,101461.56
2023-09-10T04:57:21.886Z,101459.81
2023-09-10T04:59:48.970Z,101463.38
2023-09-10T05:02:16.041Z,101458.94
2023-09-10T05:04:43.074Z,101458.94
2023-09-10T05:07:10.017Z,101466.81
2023-09-10T05:09:37.020Z,101470.31
2023-09-10T05:12:04.625Z,101474.69
2023-09-10T05:14:31.547Z,101472.03
2023-09-10T05:16:58.536Z,101477.25
2023-09-10T05:19:25.570Z,101477.22
2023-09-10T05:21:53.156Z,101474.56
2023-09-10T05:24:20.188Z,101473.66
2023-09-10T05:26:47.154Z,101467.47
2023-09-10T05:29:14.171Z,101469.19
2023-09-10T05:31:41.330Z,101479.66
2023-09-10T05:34:08.415Z,101473.47
2023-09-10T05:36:35.701Z,101474.38
2023-09-10T05:39:02.989Z,101461.22
2023-09-10T05:41:30.236Z,101473.44
2023-09-10T05:43:57.841Z,101476.06
2023-09-10T05:46:25.972Z,101479.53
2023-09-10T05:48:53.097Z,101478.59
2023-09-10T05:51:20.074Z,101483.81
2023-09-10T05:53:47.257Z,101482.03
2023-09-10T05:56:14.676Z,101486.38
2023-09-10T05:58:43.138Z,101484.53
2023-09-10T06:01:10.138Z,101480.94
2023-09-10T06:03:37.205Z,101481.72
2023-09-10T06:06:04.419Z,101478.16
2023-09-10T06:08:32.232Z,101478.94
2023-09-10T06:10:59.381Z,101474.41
2023-09-10T06:13:26.771Z,101483.06
2023-09-10T06:15:53.843Z,101484.69
2023-09-10T06:18:22.595Z,101483.69
2023-09-10T06:20:49.523Z,101484.47
2023-09-10T06:23:16.611Z,101477.28
2023-09-10T06:25:44.805Z,101472.72
2023-09-10T06:28:13.407Z,101470.78
2023-09-10T06:30:40.393Z,101479.38
2023-09-10T06:33:07.525Z,101476.53
2023-09-10T06:35:35.378Z,101475.44
2023-09-10T06:38:02.851Z,101474.31
2023-09-10T06:40:30.882Z,101479.38
2023-09-10T06:42:58.203Z,101481.84
2023-09-10T06:45:37.885Z,101485.09
2023-09-10T06:48:05.910Z,101484.03
2023-09-10T06:50:32.948Z,101475.81
2023-09-10T06:52:59.923Z,101469.44
2023-09-10T06:55:26.938Z,101477.06
2023-09-10T06:57:53.974Z,101472.38
2023-09-10T07:00:21.016Z,101477.41
2023-09-10T07:02:47.930Z,101481.50
2023-09-10T07:05:15.244Z,101474.19
2023-09-10T07:07:42.207Z,101481.84
2023-09-10T07:10:11.287Z,101471.16
2023-09-10T07:12:38.479Z,101484.88
2023-09-10T07:15:05.990Z,101484.59
2023-09-10T07:17:32.941Z,101487.88
2023-09-10T07:19:59.906Z,101480.53
2023-09-10T07:22:26.848Z,101487.31
2023-09-10T07:24:53.770Z,101495.88
2023-09-10T07:27:20.701Z,101480.59
2023-09-10T07:29:47.620Z,101482.00
2023-09-10T07:32:14.572Z,101486.97
2023-09-10T07:34:41.509Z,101487.59
2023-09-10T07:37:11.175Z,101492.63
2023-09-10T07:39:39.167Z,101494.94
2023-09-10T07:42:06.101Z,101496.38
2023-09-10T07:44:33.120Z,101493.41
2023-09-10T07:47:00.078Z,101495.72
2023-09-10T07:49:27.015Z,101498.06
2023-09-10T07:51:53.962Z,101496.84
2023-09-10T07:54:20.901Z,101500.94
2023-09-10T07:56:47.825Z,101495.28
2023-09-10T07:59:14.813Z,101500.25
2023-09-10T08:01:41.844Z,101503.38
2023-09-10T08:04:08.969Z,101502.97
2023-09-10T08:06:36.156Z,101498.19
2023-09-10T08:09:04.079Z,101503.09
2023-09-10T08:11:32.577Z,101503.59
2023-09-10T08:13:59.534Z,101512.94
2023-09-10T08:16:26.525Z,101509.00
2023-09-10T08:18:53.489Z,101502.41
2023-09-10T08:21:21.427Z,101504.63
2023-09-10T08:23:48.637Z,101504.28
2023-09-10T08:26:15.712Z,101506.50
2023-09-10T08:28:42.637Z,101500.72
2023-09-10T08:31:09.608Z,101506.50
2023-09-10T08:33:36.532Z,101505.19
2023-09-10T08:36:04.372Z,101463.25
2023-09-10T08:38:31.325Z,101503.41
2023-09-10T08:41:00.978Z,101502.03
2023-09-10T08:43:52.256Z,101502.44
2023-09-10T08:46:24.726Z,101500.09
2023-09-10T08:48:52.934Z,101502.22
2023-09-10T08:51:20.555Z,101504.47
2023-09-10T08:53:49.137Z,101499.53
2023-09-10T08:56:16.424Z,101494.59
2023-09-10T08:58:44.714Z,101496.69
2023-09-10T09:01:12.954Z,101490.00
2023-09-10T09:03:40.044Z,101489.47
2023-09-10T09:06:07.204Z,101490.75
2023-09-10T09:08:36.849Z,101491.16
2023-09-10T09:11:14.297Z,101490.63
2023-09-10T09:13:46.749Z,101490.97
2023-09-10T09:16:14.014Z,101487.75
2023-09-10T09:18:42.334Z,101488.97
2023-09-10T09:21:21.396Z,101486.69
2023-09-10T09:24:02.969Z,101487.88
2023-09-10T09:26:31.551Z,101486.38
2023-09-10T09:28:58.893Z,101492.88
2023-09-10T09:31:26.547Z,101488.81
2023-09-10T09:33:54.239Z,101477.41
2023-09-10T09:36:26.487Z,101470.69
2023-09-10T09:38:53.449Z,101478.91
2023-09-10T09:41:20.444Z,101477.34
2023-09-10T09:43:47.611Z,101473.22
2023-09-10T09:46:14.598Z,101473.41
2023-09-10T09:48:41.754Z,101470.16
2023-09-10T09:51:09.639Z,101470.50
2023-09-10T09:53:37.253Z,101468.91
2023-09-10T09:56:06.734Z,101465.53
2023-09-10T09:58:34.442Z,101472.00
2023-09-10T10:01:02.179Z,101474.00
2023-09-10T10:03:33.446Z,101477.00
2023-09-10T10:06:00.583Z,101467.44
2023-09-10T10:08:33.917Z,101468.53
2023-09-10T10:11:00.890Z,101474.16
2023-09-10T10:13:28.565Z,101466.44
2023-09-10T10:15:57.479Z,101463.13
2023-09-10T10:18:29.853Z,101466.06
2023-09-10T10:20:59.524Z,101464.66
2023-09-10T10:23:27.205Z,101468.56
2023-09-10T10:25:55.898Z,101459.16
2023-09-10T10:28:23.116Z,101456.91
2023-09-10T10:30:58.053Z,101454.59
2023-09-10T10:33:27.521Z,101450.44
2023-09-10T10:36:16.238Z,101457.13
2023-09-10T10:38:46.588Z,101451.16
2023-09-10T10:41:25.790Z,101453.34
2023-09-10T10:44:01.102Z,101453.63
2023-09-10T10:46:30.604Z,101454.06
2023-09-10T10:48:59.743Z,101457.31
2023-09-10T10:51:29.948Z,101462.38
2023-09-10T10:54:00.883Z,101458.53
2023-09-10T10:56:27.912Z,101452.88
2023-09-10T10:58:54.965Z,101457.94
2023-09-10T11:01:21.960Z,101446.00
2023-09-10T11:03:50.111Z,101445.69
2023-09-10T11:06:17.921Z,101444.41
2023-09-10T11:08:49.636Z,101441.31
2023-09-10T11:11:42.773Z,101436.47
2023-09-10T11:14:11.716Z,101428.84
2023-09-10T11:16:44.165Z,101433.91
2023-09-10T11:19:45.320Z,101438.97
2023-09-10T11:22:12.347Z,101443.81
2023-09-10T11:24:42.118Z,101444.59
2023-09-10T11:27:29.375Z,101436.28
2023-09-10T11:30:14.440Z,101439.28
2023-09-10T11:32:45.731Z,101431.75
2023-09-10T11:35:20.111Z,101433.41
2023-09-10T11:37:57.313Z,101434.88
2023-09-10T11:40:26.018Z,101439.00
2023-09-10T11:42:53.095Z,101434.38
2023-09-10T11:45:20.471Z,101433.06
2023-09-10T11:47:51.819Z,101428.44
2023-09-10T11:50:24.967Z,101422.19
2023-09-10T11:52:52.469Z,101425.50
2023-09-10T11:55:20.032Z,101426.16
2023-09-10T11:57:47.749Z,101429.50
2023-09-10T12:00:17.393Z,101432.09
2023-09-10T12:02:44.806Z,101426.38
2023-09-10T12:05:12.306Z,101417.97
2023-09-10T12:07:44.225Z,101413.97
2023-09-10T12:10:13.632Z,101422.56
2023-09-10T12:12:42.288Z,101419.75
2023-09-10T12:15:09.741Z,101419.28
2023-09-10T12:17:36.732Z,101418.25
2023-09-10T12:20:04.014Z,101423.28
2023-09-10T12:22:30.978Z,101416.69
2023-09-10T12:24:57.965Z,101415.50
2023-09-10T12:27:24.918Z,101419.94
2023-09-10T12:29:51.856Z,101426.03
2023-09-10T12:32:18.829Z,101413.44
2023-09-10T12:34:45.774Z,101416.25
2023-09-10T12:37:16.591Z,101424.94
2023-09-10T12:39:45.934Z,101417.38
2023-09-10T12:42:12.986Z,101417.28
2023-09-10T12:44:41.791Z,101418.03
2023-09-10T12:47:13.099Z,101413.25
2023-09-10T12:49:40.823Z,101414.09
2023-09-10T12:52:08.123Z,101410.56
2023-09-10T12:54:35.224Z,101412.16
2023-09-10T12:57:05.419Z,101414.63
2023-09-10T12:59:33.032Z,101405.47
2023-09-10T13:02:04.456Z,101404.59
2023-09-10T13:04:31.653Z,101405.34
2023-09-10T13:06:58.671Z,101414.16
2023-09-10T13:09:25.689Z,101413.19
2023-09-10T13:11:52.599Z,101412.31
2023-09-10T13:14:19.652Z,101410.38
2023-09-10T13:16:46.746Z,101411.88
2023-09-10T13:19:13.786Z,101413.59
2023-09-10T13:21:40.776Z,101408.13
2023-09-10T13:24:08.023Z,101405.50
2023-09-10T13:26:34.991Z,101401.09
2023-09-10T13:29:01.962Z,101400.22
2023-09-10T13:31:29.502Z,101408.13
2023-09-10T13:33:56.554Z,101405.94
2023-09-10T13:36:24.917Z,101405.03
2023-09-10T13:38:51.964Z,101407.41
2023-09-10T13:41:19.001Z,101405.78
2023-09-10T13:43:45.946Z,101405.69
2023-09-10T13:46:12.946Z,101413.53
2023-09-10T13:48:39.883Z,101407.03
2023-09-10T13:51:09.342Z,101405.00
2023-09-10T13:53:43.024Z,101407.56
2023-09-10T13:56:13.709Z,101408.19
2023-09-10T13:58:40.676Z,101412.34
2023-09-10T14:01:10.724Z,101404.34
2023-09-10T14:03:38.481Z,101402.00
2023-09-10T14:06:06.420Z,101410.44
2023-09-10T14:08:33.470Z,101397.22
2023-09-10T14:11:00.435Z,101400.53
2023-09-10T14:13:27.372Z,101398.47
2023-09-10T14:15:54.318Z,101399.94
2023-09-10T14:18:21.362Z,101402.31
2023-09-10T14:20:48.338Z,101407.31
2023-09-10T14:23:15.866Z,101404.63
2023-09-10T14:25:42.937Z,101400.97
2023-09-10T14:28:09.874Z,101401.81
2023-09-10T14:30:36.962Z,101402.66
2023-09-10T14:33:04.179Z,101405.13
2023-09-10T14:35:31.228Z,101404.16
2023-09-10T14:38:00.143Z,101397.03
2023-09-10T14:40:27.345Z,101395.22
2023-09-10T14:42:54.321Z,101391.78
2023-09-10T14:45:21.218Z,101391.53
2023-09-10T14:47:48.211Z,101393.72
2023-09-10T14:50:15.294Z,101390.88
2023-09-10T14:52:43.376Z,101390.38
2023-09-10T14:55:13.648Z,101385.69
2023-09-10T14:57:40.856Z,101383.19
2023-09-10T15:00:08.595Z,101383.19
2023-09-10T15:02:37.540Z,101382.03
2023-09-10T15:05:07.950Z,101375.44
2023-09-10T15:07:34.932Z,101375.53
2023-09-10T15:10:01.978Z,101375.03
2023-09-10T15:12:29.270Z,101378.81
2023-09-10T15:14:56.358Z,101374.28
2023-09-10T15:17:23.330Z,101374.16
2023-09-10T15:19:50.257Z,101376.25
2023-09-10T15:22:17.157Z,101372.81
2023-09-10T15:24:44.084Z,101377.88
2023-09-10T15:27:11.037Z,101376.66
2023-09-10T15:29:38.048Z,101380.44
2023-09-10T15:32:05.655Z,101369.78
2023-09-10T15:34:32.620Z,101367.94
2023-09-10T15:36:59.540Z,101372.22
2023-09-10T15:39:26.477Z,101368.78
2023-09-10T15:41:54.203Z,101375.16
2023-09-10T15:44:21.383Z,101379.56
2023-09-10T15:46:48.477Z,101376.84
2023-09-10T15:49:15.458Z,101365.34
2023-09-10T15:51:42.501Z,101369.66
2023-09-10T15:54:09.457Z,101372.22
2023-09-10T15:56:36.457Z,101371.47
2023-09-10T15:59:04.255Z,101367.06
2023-09-10T16:01:32.017Z,101369.22
2023-09-10T16:03:59.035Z,101373.34
2023-09-10T16:06:25.977Z,101371.31
2023-09-10T16:08:52.903Z,101368.81
2023-09-10T16:11:19.951Z,101370.53
2023-09-10T16:13:46.967Z,101372.38
2023-09-10T16:16:13.952Z,101373.25
2023-09-10T16:18:40.911Z,101377.56
2023-09-10T16:21:08.075Z,101367.69
2023-09-10T16:23:35.078Z,101366.81
2023-09-10T16:26:02.606Z,101375.50
2023-09-10T16:28:29.689Z,101378.72
2023-09-10T16:30:56.701Z,101378.41
2023-09-10T16:33:23.854Z,101386.00
2023-09-10T16:35:50.873Z,101380.19
2023-09-10T16:38:17.887Z,101388.56
2023-09-10T16:40:44.818Z,101382.00
2023-09-10T16:43:11.806Z,101376.47
2023-09-10T16:45:38.710Z,101380.41
2023-09-10T16:48:06.017Z,101379.09
2023-09-10T16:50:33.071Z,101392.84
2023-09-10T16:53:02.712Z,101386.81
2023-09-10T16:55:30.084Z,101389.72
2023-09-10T16:57:57.071Z,101395.94
2023-09-10T17:00:24.014Z,101395.16
2023-09-10T17:02:51.481Z,101401.59
2023-09-10T17:05:18.542Z,101399.03
2023-09-10T17:07:45.499Z,101398.00
2023-09-10T17:10:12.528Z,101396.50
2023-09-10T17:12:39.461Z,101395.66
2023-09-10T17:15:07.160Z,101397.59
2023-09-10T17:17:39.222Z,101403.22
2023-09-10T17:20:08.651Z,101400.63
2023-09-10T17:22:36.167Z,101407.69
2023-09-10T17:25:04.274Z,101400.66
2023-09-10T17:27:31.215Z,101411.84
2023-09-10T17:29:58.318Z,101415.94
2023-09-10T17:32:25.328Z,101418.00
2023-09-10T17:34:52.327Z,101420.84
2023-09-10T17:37:23.644Z,101420.00
2023-09-10T17:39:54.662Z,101426.22
2023-09-10T17:42:21.746Z,101428.03
2023-09-10T17:44:51.836Z,101431.56
2023-09-10T17:47:27.937Z,101422.94
2023-09-10T17:50:05.998Z,101426.97
2023-09-10T17:52:34.509Z,101419.00
2023-09-10T17:55:05.912Z,101421.59
2023-09-10T17:57:34.332Z,101426.00
2023-09-10T18:00:01.633Z,101425.13
2023-09-10T18:02:28.871Z,101429.53
2023-09-10T18:04:56.093Z,101436.69
2023-09-10T18:07:23.123Z,101432.38
2023-09-10T18:09:51.365Z,101434.47
2023-09-10T18:12:19.412Z,101440.88
2023-09-10T18:14:46.410Z,101441.13
2023-09-10T18:17:14.496Z,101443.66
2023-09-10T18:19:42.849Z,101442.06
2023-09-10T18:22:09.854Z,101444.03
2023-09-10T18:24:36.790Z,101443.31
2023-09-10T18:27:03.979Z,101450.97
2023-09-10T18:29:31.092Z,101443.66
2023-09-10T18:31:58.113Z,101442.09
2023-09-10T18:34:25.206Z,101453.13
2023-09-10T18:36:52.184Z,101453.44
2023-09-10T18:39:19.482Z,101453.84
2023-09-10T18:41:46.443Z,101453.31
2023-09-10T18:44:13.420Z,101455.72
2023-09-10T18:46:40.403Z,101456.41
2023-09-10T18:49:07.729Z,101466.13
2023-09-10T18:51:34.710Z,101462.59
2023-09-10T18:54:01.660Z,101464.94
2023-09-10T18:56:28.661Z,101466.31
2023-09-10T18:58:56.588Z,101465.91
2023-09-10T19:01:23.569Z,101465.31
2023-09-10T19:03:50.792Z,101470.16
2023-09-10T19:06:17.773Z,101472.47
2023-09-10T19:08:44.737Z,101474.69
2023-09-10T19:11:11.676Z,101483.94
2023-09-10T19:13:38.774Z,101481.44
2023-09-10T19:16:05.973Z,101467.34
2023-09-10T19:18:32.961Z,101478.66
2023-09-10T19:21:00.081Z,101470.88
2023-09-10T19:23:27.034Z,101478.31
2023-09-10T19:25:54.970Z,101475.19
2023-09-10T19:28:21.882Z,101483.72
2023-09-10T19:30:52.771Z,101483.09
2023-09-10T19:33:19.989Z,101486.91
2023-09-10T19:35:47.095Z,101489.97
2023-09-10T19:38:14.083Z,101493.13
2023-09-10T19:40:41.010Z,101486.78
2023-09-10T19:43:07.925Z,101489.84
2023-09-10T19:45:34.878Z,101484.13
2023-09-10T19:48:01.859Z,101486.38
2023-09-10T19:50:28.882Z,101484.84
2023-09-10T19:52:55.837Z,101489.66
2023-09-10T19:55:22.753Z,101484.81
2023-09-10T19:57:49.666Z,101479.97
2023-09-10T20:00:16.683Z,101483.56
2023-09-10T20:02:44.389Z,101476.69
2023-09-10T20:05:11.674Z,101488.31
2023-09-10T20:07:41.880Z,101484.00
2023-09-10T20:10:09.760Z,101478.78
2023-09-10T20:12:36.759Z,101475.19
2023-09-10T20:15:06.481Z,101474.94
2023-09-10T20:17:34.230Z,101478.25
2023-09-10T20:20:01.270Z,101480.91
2023-09-10T20:22:28.209Z,101479.19
2023-09-10T20:24:55.190Z,101481.78
2023-09-10T20:27:22.142Z,101492.38
2023-09-10T20:29:49.110Z,101478.94
2023-09-10T20:32:16.266Z,101480.69
2023-09-10T20:34:43.221Z,101482.38
2023-09-10T20:37:10.451Z,101484.94
2023-09-10T20:39:37.332Z,101481.44
2023-09-10T20:42:04.327Z,101479.06
2023-09-10T20:44:31.297Z,101490.16
2023-09-10T20:46:58.658Z,101480.03
2023-09-10T20:49:25.579Z,101488.25
2023-09-10T20:51:54.692Z,101484.75
2023-09-10T20:54:21.825Z,101477.59
2023-09-10T20:56:48.829Z,101479.34
2023-09-10T20:59:15.889Z,101487.28
2023-09-10T21:01:42.916Z,101481.97
2023-09-10T21:04:11.412Z,101483.69
2023-09-10T21:06:39.140Z,101481.97
2023-09-10T21:09:06.311Z,101477.59
2023-09-10T21:11:33.481Z,101477.84
2023-09-10T21:14:05.776Z,101479.06
2023-09-10T21:16:33.402Z,101480.31
2023-09-10T21:19:02.784Z,101479.75
2023-09-10T21:21:29.712Z,101480.59
2023-09-10T21:23:57.068Z,101478.84
2023-09-10T21:26:24.413Z,101474.50
2023-09-10T21:28:51.387Z,101467.56
2023-09-10T21:31:18.331Z,101477.69
2023-09-10T21:33:45.255Z,101463.91
2023-09-10T21:36:12.194Z,101466.72
2023-09-10T21:38:39.935Z,101465.88
2023-09-10T21:41:07.350Z,101467.63
2023-09-10T21:43:34.268Z,101463.22
2023-09-10T21:46:07.300Z,101456.19
2023-09-10T21:48:34.383Z,101464.06
2023-09-10T21:51:01.436Z,101462.31
2023-09-10T21:53:28.396Z,101466.97
2023-09-10T21:55:55.354Z,101468.09
2023-09-10T21:58:22.890Z,101464.94
2023-09-10T22:00:49.805Z,101465.28
2023-09-10T22:03:16.835Z,101462.06
2023-09-10T22:05:45.189Z,101467.81
2023-09-10T22:08:12.525Z,101469.16
2023-09-10T22:10:39.521Z,101472.22
2023-09-10T22:13:06.507Z,101465.44
2023-09-10T22:15:33.476Z,101466.56
2023-09-10T22:18:00.512Z,101461.50
2023-09-10T22:20:27.549Z,101477.66
2023-09-10T22:22:56.265Z,101471.75
2023-09-10T22:25:24.343Z,101475.50
2023-09-10T22:27:53.343Z,101469.41
2023-09-10T22:30:20.403Z,101467.69
2023-09-10T22:32:48.842Z,101464.03
2023-09-10T22:35:15.873Z,101457.78
2023-09-10T22:37:42.809Z,101458.63
2023-09-10T22:40:11.258Z,101455.09
2023-09-10T22:42:39.053Z,101459.47
2023-09-10T22:45:06.736Z,101455.13
2023-09-10T22:47:34.021Z,101449.91
2023-09-10T22:50:01.093Z,101456.06
2023-09-10T22:52:28.035Z,101448.88
2023-09-10T22:54:55.008Z,101442.63
2023-09-10T22:57:21.941Z,101447.81
2023-09-10T22:59:48.889Z,101452.22
2023-09-10T23:02:16.934Z,101443.31
2023-09-10T23:04:44.080Z,101444.19
2023-09-10T23:07:11.077Z,101437.94
2023-09-10T23:09:38.007Z,101445.88
2023-09-10T23:12:05.148Z,101436.31
2023-09-10T23:14:32.128Z,101445.00
2023-09-10T23:16:59.047Z,101436.16
2023-09-10T23:19:26.025Z,101443.25
2023-09-10T23:21:52.974Z,101449.47
2023-09-10T23:24:19.889Z,101444.22
2023-09-10T23:26:50.304Z,101443.38
2023-09-10T23:29:17.901Z,101442.63
2023-09-10T23:31:48.543Z,101440.81
2023-09-10T23:34:20.608Z,101432.94
2023-09-10T23:36:48.334Z,101437.44
2023-09-10T23:39:15.335Z,101438.50
2023-09-10T23:41:42.598Z,101440.38
2023-09-10T23:44:09.562Z,101417.72
2023-09-10T23:46:37.894Z,101435.53
2023-09-10T23:49:05.273Z,101434.09
2023-09-10T23:51:32.216Z,101428.28
2023-09-10T23:53:59.119Z,101430.38
2023-09-10T23:56:26.192Z,101428.88
2023-09-10T23:58:53.161Z,101421.28
